sensor_id;sensor_type;location;lat;lon;timestamp;pressure;altitude;pressure_sealevel;temperature
80246;BMP280;69558;39.208;-77.226;2024-02-26T00:00:04;100347.41;;;15.46
80246;BMP280;69558;39.208;-77.226;2024-02-26T00:02:30;100352.13;;;15.50
80246;BMP280;69558;39.208;-77.226;2024-02-26T00:04:57;100344.44;;;15.49
80246;BMP280;69558;39.208;-77.226;2024-02-26T00:07:23;100346.91;;;15.50
80246;BMP280;69558;39.208;-77.226;2024-02-26T00:09:49;100351.31;;;15.50
80246;BMP280;69558;39.208;-77.226;2024-02-26T00:12:14;100349.69;;;15.49
80246;BMP280;69558;39.208;-77.226;2024-02-26T00:14:40;100352.13;;;15.50
80246;BMP280;69558;39.208;-77.226;2024-02-26T00:17:06;100351.47;;;15.48
80246;BMP280;69558;39.208;-77.226;2024-02-26T00:19:35;100340.38;;;15.46
80246;BMP280;69558;39.208;-77.226;2024-02-26T00:22:00;100347.41;;;15.46
80246;BMP280;69558;39.208;-77.226;2024-02-26T00:24:26;100345.59;;;15.46
80246;BMP280;69558;39.208;-77.226;2024-02-26T00:26:52;100352.63;;;15.46
80246;BMP280;69558;39.208;-77.226;2024-02-26T00:29:20;100353.09;;;15.49
80246;BMP280;69558;39.208;-77.226;2024-02-26T00:31:46;100353.28;;;15.48
80246;BMP280;69558;39.208;-77.226;2024-02-26T00:34:12;100359.16;;;15.50
80246;BMP280;69558;39.208;-77.226;2024-02-26T00:36:37;100349.34;;;15.52
80246;BMP280;69558;39.208;-77.226;2024-02-26T00:39:03;100351.63;;;15.55
80246;BMP280;69558;39.208;-77.226;2024-02-26T00:41:29;100346.41;;;15.55
80246;BMP280;69558;39.208;-77.226;2024-02-26T00:43:55;100348.03;;;15.56
80246;BMP280;69558;39.208;-77.226;2024-02-26T00:46:21;100348.56;;;15.60
80246;BMP280;69558;39.208;-77.226;2024-02-26T00:48:47;100355.22;;;15.62
80246;BMP280;69558;39.208;-77.226;2024-02-26T00:51:13;100344.16;;;15.60
80246;BMP280;69558;39.208;-77.226;2024-02-26T00:53:38;100346.88;;;15.67
80246;BMP280;69558;39.208;-77.226;2024-02-26T00:56:04;100349.69;;;15.65
80246;BMP280;69558;39.208;-77.226;2024-02-26T00:58:30;100349.00;;;15.63
80246;BMP280;69558;39.208;-77.226;2024-02-26T01:00:56;100358.16;;;15.67
80246;BMP280;69558;39.208;-77.226;2024-02-26T01:03:22;100348.19;;;15.63
80246;BMP280;69558;39.208;-77.226;2024-02-26T01:05:48;100360.97;;;15.66
80246;BMP280;69558;39.208;-77.226;2024-02-26T01:08:13;100357.53;;;15.65
80246;BMP280;69558;39.208;-77.226;2024-02-26T01:10:39;100354.94;;;15.65
80246;BMP280;69558;39.208;-77.226;2024-02-26T01:13:05;100348.69;;;15.58
80246;BMP280;69558;39.208;-77.226;2024-02-26T01:15:33;100357.22;;;15.60
80246;BMP280;69558;39.208;-77.226;2024-02-26T01:17:59;100358.66;;;15.63
80246;BMP280;69558;39.208;-77.226;2024-02-26T01:20:24;100362.09;;;15.63
80246;BMP280;69558;39.208;-77.226;2024-02-26T01:22:50;100355.59;;;15.59
80246;BMP280;69558;39.208;-77.226;2024-02-26T01:25:16;100352.13;;;15.58
80246;BMP280;69558;39.208;-77.226;2024-02-26T01:27:43;100357.03;;;15.62
80246;BMP280;69558;39.208;-77.226;2024-02-26T01:30:10;100356.03;;;15.63
80246;BMP280;69558;39.208;-77.226;2024-02-26T01:32:36;100355.72;;;15.57
80246;BMP280;69558;39.208;-77.226;2024-02-26T01:35:03;100361.63;;;15.60
80246;BMP280;69558;39.208;-77.226;2024-02-26T01:37:30;100349.50;;;15.58
80246;BMP280;69558;39.208;-77.226;2024-02-26T01:39:56;100350.34;;;15.59
80246;BMP280;69558;39.208;-77.226;2024-02-26T01:42:22;100350.50;;;15.57
80246;BMP280;69558;39.208;-77.226;2024-02-26T01:44:47;100348.84;;;15.56
80246;BMP280;69558;39.208;-77.226;2024-02-26T01:47:13;100347.38;;;15.54
80246;BMP280;69558;39.208;-77.226;2024-02-26T01:49:39;100335.47;;;15.51
80246;BMP280;69558;39.208;-77.226;2024-02-26T01:52:06;100352.28;;;15.57
80246;BMP280;69558;39.208;-77.226;2024-02-26T01:54:35;100351.47;;;15.56
80246;BMP280;69558;39.208;-77.226;2024-02-26T01:57:04;100340.84;;;15.50
80246;BMP280;69558;39.208;-77.226;2024-02-26T01:59:30;100348.03;;;15.56
80246;BMP280;69558;39.208;-77.226;2024-02-26T02:01:59;100357.69;;;15.55
80246;BMP280;69558;39.208;-77.226;2024-02-26T02:04:27;100356.53;;;15.50
80246;BMP280;69558;39.208;-77.226;2024-02-26T02:06:53;100364.22;;;15.51
80246;BMP280;69558;39.208;-77.226;2024-02-26T02:09:20;100367.66;;;15.52
80246;BMP280;69558;39.208;-77.226;2024-02-26T02:11:46;100354.75;;;15.42
80246;BMP280;69558;39.208;-77.226;2024-02-26T02:14:14;100357.97;;;15.44
80246;BMP280;69558;39.208;-77.226;2024-02-26T02:16:40;100364.72;;;15.47
80246;BMP280;69558;39.208;-77.226;2024-02-26T02:19:06;100363.41;;;15.43
80246;BMP280;69558;39.208;-77.226;2024-02-26T02:21:33;100357.16;;;15.44
80246;BMP280;69558;39.208;-77.226;2024-02-26T02:23:59;100352.94;;;15.43
80246;BMP280;69558;39.208;-77.226;2024-02-26T02:26:25;100342.47;;;15.35
80246;BMP280;69558;39.208;-77.226;2024-02-26T02:28:51;100352.75;;;15.44
80246;BMP280;69558;39.208;-77.226;2024-02-26T02:31:16;100347.53;;;15.44
80246;BMP280;69558;39.208;-77.226;2024-02-26T02:33:43;100346.72;;;15.44
80246;BMP280;69558;39.208;-77.226;2024-02-26T02:36:08;100343.63;;;15.48
80246;BMP280;69558;39.208;-77.226;2024-02-26T02:38:36;100345.44;;;15.48
80246;BMP280;69558;39.208;-77.226;2024-02-26T02:41:03;100344.28;;;15.50
80246;BMP280;69558;39.208;-77.226;2024-02-26T02:43:29;100346.75;;;15.52
80246;BMP280;69558;39.208;-77.226;2024-02-26T02:45:55;100358.69;;;15.54
80246;BMP280;69558;39.208;-77.226;2024-02-26T02:48:21;100358.34;;;15.57
80246;BMP280;69558;39.208;-77.226;2024-02-26T02:50:46;100349.50;;;15.58
80246;BMP280;69558;39.208;-77.226;2024-02-26T02:53:12;100351.16;;;15.60
80246;BMP280;69558;39.208;-77.226;2024-02-26T02:55:38;100350.97;;;15.61
80246;BMP280;69558;39.208;-77.226;2024-02-26T02:58:04;100349.50;;;15.58
80246;BMP280;69558;39.208;-77.226;2024-02-26T03:00:30;100356.41;;;15.60
80246;BMP280;69558;39.208;-77.226;2024-02-26T03:02:55;100358.81;;;15.61
80246;BMP280;69558;39.208;-77.226;2024-02-26T03:05:21;100366.03;;;15.59
80246;BMP280;69558;39.208;-77.226;2024-02-26T03:07:47;100358.81;;;15.61
80246;BMP280;69558;39.208;-77.226;2024-02-26T03:10:13;100360.94;;;15.57
80246;BMP280;69558;39.208;-77.226;2024-02-26T03:12:39;100348.25;;;15.54
80246;BMP280;69558;39.208;-77.226;2024-02-26T03:15:05;100357.34;;;15.58
80246;BMP280;69558;39.208;-77.226;2024-02-26T03:17:31;100347.72;;;15.51
80246;BMP280;69558;39.208;-77.226;2024-02-26T03:19:57;100357.03;;;15.53
80246;BMP280;69558;39.208;-77.226;2024-02-26T03:22:23;100357.84;;;15.54
80246;BMP280;69558;39.208;-77.226;2024-02-26T03:24:48;100359.31;;;15.56
80246;BMP280;69558;39.208;-77.226;2024-02-26T03:27:14;100356.06;;;15.54
80246;BMP280;69558;39.208;-77.226;2024-02-26T03:29:40;100346.91;;;15.50
80246;BMP280;69558;39.208;-77.226;2024-02-26T03:32:06;100339.22;;;15.49
80246;BMP280;69558;39.208;-77.226;2024-02-26T03:34:33;100345.75;;;15.53
80246;BMP280;69558;39.208;-77.226;2024-02-26T03:37:02;100343.47;;;15.50
80246;BMP280;69558;39.208;-77.226;2024-02-26T03:39:29;100333.34;;;15.47
80246;BMP280;69558;39.208;-77.226;2024-02-26T03:41:55;100333.00;;;15.50
80246;BMP280;69558;39.208;-77.226;2024-02-26T03:44:20;100332.19;;;15.49
80246;BMP280;69558;39.208;-77.226;2024-02-26T03:46:46;100328.59;;;15.50
80246;BMP280;69558;39.208;-77.226;2024-02-26T03:49:12;100331.38;;;15.49
80246;BMP280;69558;39.208;-77.226;2024-02-26T03:51:38;100326.16;;;15.49
80246;BMP280;69558;39.208;-77.226;2024-02-26T03:54:04;100317.66;;;15.47
80246;BMP280;69558;39.208;-77.226;2024-02-26T03:56:30;100322.72;;;15.48
80246;BMP280;69558;39.208;-77.226;2024-02-26T03:58:56;100311.28;;;15.41
80246;BMP280;69558;39.208;-77.226;2024-02-26T04:01:22;100313.53;;;15.44
80246;BMP280;69558;39.208;-77.226;2024-02-26T04:03:47;100301.13;;;15.38
80246;BMP280;69558;39.208;-77.226;2024-02-26T04:06:13;100312.72;;;15.44
80246;BMP280;69558;39.208;-77.226;2024-02-26T04:08:45;100301.66;;;15.42
80246;BMP280;69558;39.208;-77.226;2024-02-26T04:11:11;100276.66;;;15.23
80246;BMP280;69558;39.208;-77.226;2024-02-26T04:13:37;100297.09;;;15.36
80246;BMP280;69558;39.208;-77.226;2024-02-26T04:16:06;100294.94;;;15.39
80246;BMP280;69558;39.208;-77.226;2024-02-26T04:18:33;100289.69;;;15.39
80246;BMP280;69558;39.208;-77.226;2024-02-26T04:20:59;100286.28;;;15.39
80246;BMP280;69558;39.208;-77.226;2024-02-26T04:23:25;100282.06;;;15.38
80246;BMP280;69558;39.208;-77.226;2024-02-26T04:25:51;100278.31;;;15.32
80246;BMP280;69558;39.208;-77.226;2024-02-26T04:28:19;100272.06;;;15.33
80246;BMP280;69558;39.208;-77.226;2024-02-26T04:30:47;100279.75;;;15.35
80246;BMP280;69558;39.208;-77.226;2024-02-26T04:33:13;100278.31;;;15.32
80246;BMP280;69558;39.208;-77.226;2024-02-26T04:35:39;100276.47;;;15.33
80246;BMP280;69558;39.208;-77.226;2024-02-26T04:38:05;100276.00;;;15.29
80246;BMP280;69558;39.208;-77.226;2024-02-26T04:40:31;100272.06;;;15.33
80246;BMP280;69558;39.208;-77.226;2024-02-26T04:42:57;100273.69;;;15.34
80246;BMP280;69558;39.208;-77.226;2024-02-26T04:45:22;100266.34;;;15.30
80246;BMP280;69558;39.208;-77.226;2024-02-26T04:47:50;100270.78;;;15.37
80246;BMP280;69558;39.208;-77.226;2024-02-26T04:50:16;100266.38;;;15.38
80246;BMP280;69558;39.208;-77.226;2024-02-26T04:52:42;100276.00;;;15.37
80246;BMP280;69558;39.208;-77.226;2024-02-26T04:55:08;100268.34;;;15.36
80246;BMP280;69558;39.208;-77.226;2024-02-26T04:57:33;100271.28;;;15.41
80246;BMP280;69558;39.208;-77.226;2024-02-26T04:59:59;100242.19;;;15.27
80246;BMP280;69558;39.208;-77.226;2024-02-26T05:02:25;100261.81;;;15.40
80246;BMP280;69558;39.208;-77.226;2024-02-26T05:04:51;100261.94;;;15.38
80246;BMP280;69558;39.208;-77.226;2024-02-26T05:07:17;100251.00;;;15.43
80246;BMP280;69558;39.208;-77.226;2024-02-26T05:09:43;100251.81;;;15.43
80246;BMP280;69558;39.208;-77.226;2024-02-26T05:12:09;100256.72;;;15.46
80246;BMP280;69558;39.208;-77.226;2024-02-26T05:14:35;100252.31;;;15.47
80246;BMP280;69558;39.208;-77.226;2024-02-26T05:17:01;100248.72;;;15.48
80246;BMP280;69558;39.208;-77.226;2024-02-26T05:19:28;100249.19;;;15.51
80246;BMP280;69558;39.208;-77.226;2024-02-26T05:21:53;100244.28;;;15.56
80246;BMP280;69558;39.208;-77.226;2024-02-26T05:24:19;100251.00;;;15.59
80246;BMP280;69558;39.208;-77.226;2024-02-26T05:26:48;100250.03;;;15.60
80246;BMP280;69558;39.208;-77.226;2024-02-26T05:29:14;100248.38;;;15.59
80246;BMP280;69558;39.208;-77.226;2024-02-26T05:31:42;100243.16;;;15.59
80246;BMP280;69558;39.208;-77.226;2024-02-26T05:34:08;100238.88;;;15.58
80246;BMP280;69558;39.208;-77.226;2024-02-26T05:36:34;100235.31;;;15.51
80246;BMP280;69558;39.208;-77.226;2024-02-26T05:39:00;100241.66;;;15.56
80246;BMP280;69558;39.208;-77.226;2024-02-26T05:41:26;100234.97;;;15.54
80246;BMP280;69558;39.208;-77.226;2024-02-26T05:43:55;100236.44;;;15.56
80246;BMP280;69558;39.208;-77.226;2024-02-26T05:46:21;100233.22;;;15.54
80246;BMP280;69558;39.208;-77.226;2024-02-26T05:48:50;100229.44;;;15.49
80246;BMP280;69558;39.208;-77.226;2024-02-26T05:51:16;100247.22;;;15.53
80246;BMP280;69558;39.208;-77.226;2024-02-26T05:53:42;100237.09;;;15.50
80246;BMP280;69558;39.208;-77.226;2024-02-26T05:56:08;100239.72;;;15.50
80246;BMP280;69558;39.208;-77.226;2024-02-26T05:58:34;100242.34;;;15.50
80246;BMP280;69558;39.208;-77.226;2024-02-26T06:00:59;100242.34;;;15.50
80246;BMP280;69558;39.208;-77.226;2024-02-26T06:03:26;100234.00;;;15.47
80246;BMP280;69558;39.208;-77.226;2024-02-26T06:05:52;100240.72;;;15.49
80246;BMP280;69558;39.208;-77.226;2024-02-26T06:08:18;100226.84;;;15.41
80246;BMP280;69558;39.208;-77.226;2024-02-26T06:10:43;100235.47;;;15.49
80246;BMP280;69558;39.208;-77.226;2024-02-26T06:13:09;100231.22;;;15.48
80246;BMP280;69558;39.208;-77.226;2024-02-26T06:15:35;100227.81;;;15.48
80246;BMP280;69558;39.208;-77.226;2024-02-26T06:18:01;100219.81;;;15.41
80246;BMP280;69558;39.208;-77.226;2024-02-26T06:20:27;100217.38;;;15.40
80246;BMP280;69558;39.208;-77.226;2024-02-26T06:22:53;100219.81;;;15.41
80246;BMP280;69558;39.208;-77.226;2024-02-26T06:25:18;100223.84;;;15.44
80246;BMP280;69558;39.208;-77.226;2024-02-26T06:27:44;100221.25;;;15.44
80246;BMP280;69558;39.208;-77.226;2024-02-26T06:30:10;100214.75;;;15.40
80246;BMP280;69558;39.208;-77.226;2024-02-26T06:32:39;100220.63;;;15.42
80246;BMP280;69558;39.208;-77.226;2024-02-26T06:35:05;100222.59;;;15.40
80246;BMP280;69558;39.208;-77.226;2024-02-26T06:37:33;100218.50;;;15.37
80246;BMP280;69558;39.208;-77.226;2024-02-26T06:40:00;100202.53;;;15.32
80246;BMP280;69558;39.208;-77.226;2024-02-26T06:42:26;100217.69;;;15.37
80246;BMP280;69558;39.208;-77.226;2024-02-26T06:44:51;100214.28;;;15.36
80246;BMP280;69558;39.208;-77.226;2024-02-26T06:47:17;100213.28;;;15.37
80246;BMP280;69558;39.208;-77.226;2024-02-26T06:49:45;100216.53;;;15.39
80246;BMP280;69558;39.208;-77.226;2024-02-26T06:52:10;100199.72;;;15.34
80246;BMP280;69558;39.208;-77.226;2024-02-26T06:54:36;100203.44;;;15.39
80246;BMP280;69558;39.208;-77.226;2024-02-26T06:57:03;100197.28;;;15.40
80246;BMP280;69558;39.208;-77.226;2024-02-26T06:59:29;100202.50;;;15.40
80246;BMP280;69558;39.208;-77.226;2024-02-26T07:01:55;100198.72;;;15.43
80246;BMP280;69558;39.208;-77.226;2024-02-26T07:04:21;100195.94;;;15.44
80246;BMP280;69558;39.208;-77.226;2024-02-26T07:06:47;100199.22;;;15.46
80246;BMP280;69558;39.208;-77.226;2024-02-26T07:09:13;100193.16;;;15.46
80246;BMP280;69558;39.208;-77.226;2024-02-26T07:11:39;100201.84;;;15.46
80246;BMP280;69558;39.208;-77.226;2024-02-26T07:14:10;100198.06;;;15.49
80246;BMP280;69558;39.208;-77.226;2024-02-26T07:16:36;100193.16;;;15.46
80246;BMP280;69558;39.208;-77.226;2024-02-26T07:19:04;100190.88;;;15.51
80246;BMP280;69558;39.208;-77.226;2024-02-26T07:21:30;100203.13;;;15.50
80246;BMP280;69558;39.208;-77.226;2024-02-26T07:23:56;100195.44;;;15.49
80246;BMP280;69558;39.208;-77.226;2024-02-26T07:26:22;100190.88;;;15.51
80246;BMP280;69558;39.208;-77.226;2024-02-26T07:28:50;100190.06;;;15.50
80246;BMP280;69558;39.208;-77.226;2024-02-26T07:31:17;100176.81;;;15.52
80246;BMP280;69558;39.208;-77.226;2024-02-26T07:33:44;100173.72;;;15.48
80246;BMP280;69558;39.208;-77.226;2024-02-26T07:36:11;100180.72;;;15.56
80246;BMP280;69558;39.208;-77.226;2024-02-26T07:38:37;100170.91;;;15.58
80246;BMP280;69558;39.208;-77.226;2024-02-26T07:41:03;100165.22;;;15.54
80246;BMP280;69558;39.208;-77.226;2024-02-26T07:43:29;100173.69;;;15.56
80246;BMP280;69558;39.208;-77.226;2024-02-26T07:45:55;100180.72;;;15.56
80246;BMP280;69558;39.208;-77.226;2024-02-26T07:48:21;100182.34;;;15.57
80246;BMP280;69558;39.208;-77.226;2024-02-26T07:50:46;100179.91;;;15.55
80246;BMP280;69558;39.208;-77.226;2024-02-26T07:53:13;100186.94;;;15.55
80246;BMP280;69558;39.208;-77.226;2024-02-26T07:55:39;100188.25;;;15.51
80246;BMP280;69558;39.208;-77.226;2024-02-26T07:58:05;100190.69;;;15.52
80246;BMP280;69558;39.208;-77.226;2024-02-26T08:00:31;100203.44;;;15.55
80246;BMP280;69558;39.208;-77.226;2024-02-26T08:02:56;100194.59;;;15.56
80246;BMP280;69558;39.208;-77.226;2024-02-26T08:05:22;100194.78;;;15.55
80246;BMP280;69558;39.208;-77.226;2024-02-26T08:07:48;100187.59;;;15.49
80246;BMP280;69558;39.208;-77.226;2024-02-26T08:10:14;100199.53;;;15.51
80246;BMP280;69558;39.208;-77.226;2024-02-26T08:12:40;100193.47;;;15.51
80246;BMP280;69558;39.208;-77.226;2024-02-26T08:15:07;100189.41;;;15.48
80246;BMP280;69558;39.208;-77.226;2024-02-26T08:17:33;100181.56;;;15.48
80246;BMP280;69558;39.208;-77.226;2024-02-26T08:20:00;100189.75;;;15.45
80246;BMP280;69558;39.208;-77.226;2024-02-26T08:22:26;100197.72;;;15.52
80246;BMP280;69558;39.208;-77.226;2024-02-26T08:24:51;100194.28;;;15.51
80246;BMP280;69558;39.208;-77.226;2024-02-26T08:27:17;100179.28;;;15.45
80246;BMP280;69558;39.208;-77.226;2024-02-26T08:29:43;100186.16;;;15.46
80246;BMP280;69558;39.208;-77.226;2024-02-26T08:32:09;100189.41;;;15.48
80246;BMP280;69558;39.208;-77.226;2024-02-26T08:34:35;100173.09;;;15.46
80246;BMP280;69558;39.208;-77.226;2024-02-26T08:37:01;100178.13;;;15.48
80246;BMP280;69558;39.208;-77.226;2024-02-26T08:39:26;100171.78;;;15.42
80246;BMP280;69558;39.208;-77.226;2024-02-26T08:41:52;100179.13;;;15.47
80246;BMP280;69558;39.208;-77.226;2024-02-26T08:44:18;100167.19;;;15.44
80246;BMP280;69558;39.208;-77.226;2024-02-26T08:46:44;100170.16;;;15.41
80246;BMP280;69558;39.208;-77.226;2024-02-26T08:49:11;100166.72;;;15.41
80246;BMP280;69558;39.208;-77.226;2024-02-26T08:51:46;100164.94;;;15.41
80246;BMP280;69558;39.208;-77.226;2024-02-26T08:54:12;100158.88;;;15.41
80246;BMP280;69558;39.208;-77.226;2024-02-26T08:56:38;100166.56;;;15.42
80246;BMP280;69558;39.208;-77.226;2024-02-26T08:59:03;100158.72;;;15.42
80246;BMP280;69558;39.208;-77.226;2024-02-26T09:01:31;100149.56;;;15.38
80246;BMP280;69558;39.208;-77.226;2024-02-26T09:03:58;100159.31;;;15.44
80246;BMP280;69558;39.208;-77.226;2024-02-26T09:06:24;100157.56;;;15.45
80246;BMP280;69558;39.208;-77.226;2024-02-26T09:08:49;100146.94;;;15.46
80246;BMP280;69558;39.208;-77.226;2024-02-26T09:11:15;100152.16;;;15.46
80246;BMP280;69558;39.208;-77.226;2024-02-26T09:13:41;100154.63;;;15.48
80246;BMP280;69558;39.208;-77.226;2024-02-26T09:16:07;100151.34;;;15.46
80246;BMP280;69558;39.208;-77.226;2024-02-26T09:18:33;100151.34;;;15.46
80246;BMP280;69558;39.208;-77.226;2024-02-26T09:20:59;100160.47;;;15.50
80246;BMP280;69558;39.208;-77.226;2024-02-26T09:23:25;100155.09;;;15.51
80246;BMP280;69558;39.208;-77.226;2024-02-26T09:25:51;100160.16;;;15.53
80246;BMP280;69558;39.208;-77.226;2024-02-26T09:28:16;100164.41;;;15.54
80246;BMP280;69558;39.208;-77.226;2024-02-26T09:30:43;100160.97;;;15.53
80246;BMP280;69558;39.208;-77.226;2024-02-26T09:33:09;100162.63;;;15.54
80246;BMP280;69558;39.208;-77.226;2024-02-26T09:35:35;100149.69;;;15.53
80246;BMP280;69558;39.208;-77.226;2024-02-26T09:38:01;100148.72;;;15.54
80246;BMP280;69558;39.208;-77.226;2024-02-26T09:40:28;100152.78;;;15.56
80246;BMP280;69558;39.208;-77.226;2024-02-26T09:42:59;100165.53;;;15.60
80246;BMP280;69558;39.208;-77.226;2024-02-26T09:45:28;100150.16;;;15.56
80246;BMP280;69558;39.208;-77.226;2024-02-26T09:47:55;100153.91;;;15.62
80246;BMP280;69558;39.208;-77.226;2024-02-26T09:50:21;100140.34;;;15.58
80246;BMP280;69558;39.208;-77.226;2024-02-26T09:52:51;100164.06;;;15.65
80246;BMP280;69558;39.208;-77.226;2024-02-26T09:55:18;100155.38;;;15.65
80246;BMP280;69558;39.208;-77.226;2024-02-26T09:57:45;100162.41;;;15.64
80246;BMP280;69558;39.208;-77.226;2024-02-26T10:00:21;100164.22;;;15.64
80246;BMP280;69558;39.208;-77.226;2024-02-26T10:02:48;100157.31;;;15.63
80246;BMP280;69558;39.208;-77.226;2024-02-26T10:05:17;100158.31;;;15.62
80246;BMP280;69558;39.208;-77.226;2024-02-26T10:07:44;100160.13;;;15.61
80246;BMP280;69558;39.208;-77.226;2024-02-26T10:10:11;100159.28;;;15.61
80246;BMP280;69558;39.208;-77.226;2024-02-26T10:12:37;100153.28;;;15.60
80246;BMP280;69558;39.208;-77.226;2024-02-26T10:15:03;100150.00;;;15.58
80246;BMP280;69558;39.208;-77.226;2024-02-26T10:17:29;100152.59;;;15.58
80246;BMP280;69558;39.208;-77.226;2024-02-26T10:19:54;100158.81;;;15.57
80246;BMP280;69558;39.208;-77.226;2024-02-26T10:22:35;100159.16;;;15.54
80246;BMP280;69558;39.208;-77.226;2024-02-26T10:25:01;100149.56;;;15.46
80246;BMP280;69558;39.208;-77.226;2024-02-26T10:27:28;100160.31;;;15.51
80246;BMP280;69558;39.208;-77.226;2024-02-26T10:29:56;100143.34;;;15.47
80246;BMP280;69558;39.208;-77.226;2024-02-26T10:32:22;100157.69;;;15.51
80246;BMP280;69558;39.208;-77.226;2024-02-26T10:34:48;100148.75;;;15.46
80246;BMP280;69558;39.208;-77.226;2024-02-26T10:37:14;100159.34;;;15.52
80246;BMP280;69558;39.208;-77.226;2024-02-26T10:39:46;100154.09;;;15.52
80246;BMP280;69558;39.208;-77.226;2024-02-26T10:42:12;100153.16;;;15.45
80246;BMP280;69558;39.208;-77.226;2024-02-26T10:44:40;100157.06;;;15.49
80246;BMP280;69558;39.208;-77.226;2024-02-26T10:47:07;100155.59;;;15.47
80246;BMP280;69558;39.208;-77.226;2024-02-26T10:49:35;100159.19;;;15.46
80246;BMP280;69558;39.208;-77.226;2024-02-26T10:52:01;100158.88;;;15.41
80246;BMP280;69558;39.208;-77.226;2024-02-26T10:54:29;100169.78;;;15.44
80246;BMP280;69558;39.208;-77.226;2024-02-26T10:56:58;100167.03;;;15.46
80246;BMP280;69558;39.208;-77.226;2024-02-26T10:59:25;100168.19;;;15.43
80246;BMP280;69558;39.208;-77.226;2024-02-26T11:01:51;100169.16;;;15.42
80246;BMP280;69558;39.208;-77.226;2024-02-26T11:04:18;100174.41;;;15.42
80246;BMP280;69558;39.208;-77.226;2024-02-26T11:06:49;100176.19;;;15.42
80246;BMP280;69558;39.208;-77.226;2024-02-26T11:09:16;100173.28;;;15.37
80246;BMP280;69558;39.208;-77.226;2024-02-26T11:11:43;100170.47;;;15.38
80246;BMP280;69558;39.208;-77.226;2024-02-26T11:14:09;100173.06;;;15.38
80246;BMP280;69558;39.208;-77.226;2024-02-26T11:16:35;100175.69;;;15.38
80246;BMP280;69558;39.208;-77.226;2024-02-26T11:19:03;100169.84;;;15.36
80246;BMP280;69558;39.208;-77.226;2024-02-26T11:21:29;100171.47;;;15.29
80246;BMP280;69558;39.208;-77.226;2024-02-26T11:24:15;100156.28;;;15.24
80246;BMP280;69558;39.208;-77.226;2024-02-26T11:27:04;100170.66;;;15.28
80246;BMP280;69558;39.208;-77.226;2024-02-26T11:29:34;100176.38;;;15.32
80246;BMP280;69558;39.208;-77.226;2024-02-26T11:32:03;100168.72;;;15.31
80246;BMP280;69558;39.208;-77.226;2024-02-26T11:34:29;100175.06;;;15.36
80246;BMP280;69558;39.208;-77.226;2024-02-26T11:36:55;100172.28;;;15.38
80246;BMP280;69558;39.208;-77.226;2024-02-26T11:39:22;100176.38;;;15.40
80246;BMP280;69558;39.208;-77.226;2024-02-26T11:41:50;100161.19;;;15.36
80246;BMP280;69558;39.208;-77.226;2024-02-26T11:44:28;100176.03;;;15.43
80246;BMP280;69558;39.208;-77.226;2024-02-26T11:46:56;100169.69;;;15.38
80246;BMP280;69558;39.208;-77.226;2024-02-26T11:51:56;100179.28;;;15.45
80246;BMP280;69558;39.208;-77.226;2024-02-26T11:54:44;100178.94;;;15.48
80246;BMP280;69558;39.208;-77.226;2024-02-26T11:57:24;100170.31;;;15.40
80246;BMP280;69558;39.208;-77.226;2024-02-26T12:02:39;100186.97;;;15.47
80246;BMP280;69558;39.208;-77.226;2024-02-26T12:05:16;100183.84;;;15.51
80246;BMP280;69558;39.208;-77.226;2024-02-26T12:07:50;100187.59;;;15.49
80246;BMP280;69558;39.208;-77.226;2024-02-26T12:12:58;100194.94;;;15.53
80246;BMP280;69558;39.208;-77.226;2024-02-26T12:15:30;100188.25;;;15.51
80246;BMP280;69558;39.208;-77.226;2024-02-26T12:18:00;100192.50;;;15.52
80246;BMP280;69558;39.208;-77.226;2024-02-26T12:20:26;100194.28;;;15.51
80246;BMP280;69558;39.208;-77.226;2024-02-26T12:22:53;100196.09;;;15.51
80246;BMP280;69558;39.208;-77.226;2024-02-26T12:25:26;100192.16;;;15.55
80246;BMP280;69558;39.208;-77.226;2024-02-26T12:27:53;100197.06;;;15.58
80246;BMP280;69558;39.208;-77.226;2024-02-26T12:30:19;100198.72;;;15.59
80246;BMP280;69558;39.208;-77.226;2024-02-26T12:32:50;100202.59;;;15.63
80246;BMP280;69558;39.208;-77.226;2024-02-26T12:35:16;100199.34;;;15.61
80246;BMP280;69558;39.208;-77.226;2024-02-26T12:37:43;100189.06;;;15.60
80246;BMP280;69558;39.208;-77.226;2024-02-26T12:40:09;100188.88;;;15.61
80246;BMP280;69558;39.208;-77.226;2024-02-26T12:42:36;100175.81;;;15.53
80246;BMP280;69558;39.208;-77.226;2024-02-26T12:45:10;100180.22;;;15.61
80246;BMP280;69558;39.208;-77.226;2024-02-26T12:47:38;100182.53;;;15.55
80246;BMP280;69558;39.208;-77.226;2024-02-26T12:50:05;100174.19;;;15.52
80246;BMP280;69558;39.208;-77.226;2024-02-26T12:52:34;100181.38;;;15.58
80246;BMP280;69558;39.208;-77.226;2024-02-26T12:55:03;100185.78;;;15.57
80246;BMP280;69558;39.208;-77.226;2024-02-26T12:57:31;100190.19;;;15.57
80246;BMP280;69558;39.208;-77.226;2024-02-26T12:59:59;100193.78;;;15.56
80246;BMP280;69558;39.208;-77.226;2024-02-26T13:02:26;100182.69;;;15.54
80246;BMP280;69558;39.208;-77.226;2024-02-26T13:04:54;100191.19;;;15.56
80246;BMP280;69558;39.208;-77.226;2024-02-26T13:07:20;100201.84;;;15.54
80246;BMP280;69558;39.208;-77.226;2024-02-26T13:09:46;100206.22;;;15.54
80246;BMP280;69558;39.208;-77.226;2024-02-26T13:12:12;100196.75;;;15.53
80246;BMP280;69558;39.208;-77.226;2024-02-26T13:14:39;100209.16;;;15.51
80246;BMP280;69558;39.208;-77.226;2024-02-26T13:17:06;100207.06;;;15.46
80246;BMP280;69558;39.208;-77.226;2024-02-26T13:19:33;100212.75;;;15.50
80246;BMP280;69558;39.208;-77.226;2024-02-26T13:22:08;100212.94;;;15.48
80246;BMP280;69558;39.208;-77.226;2024-02-26T13:24:35;100209.84;;;15.45
80246;BMP280;69558;39.208;-77.226;2024-02-26T13:27:00;100212.44;;;15.45
80246;BMP280;69558;39.208;-77.226;2024-02-26T13:29:28;100221.75;;;15.47
80246;BMP280;69558;39.208;-77.226;2024-02-26T13:31:57;100221.09;;;15.45
80246;BMP280;69558;39.208;-77.226;2024-02-26T13:34:24;100222.06;;;15.44
80246;BMP280;69558;39.208;-77.226;2024-02-26T13:36:51;100215.41;;;15.42